createdAt,value
2023-02-11T00:06:50.779Z,103204.53
2023-02-11T00:17:12.137Z,103218.38
2023-02-11T00:27:33.534Z,103227.88
2023-02-11T00:37:55.082Z,103200.47
2023-02-11T00:48:16.451Z,103169.63
2023-02-11T00:58:37.987Z,103178.16
2023-02-11T01:08:59.368Z,103177.34
2023-02-11T01:19:20.751Z,103167.94
2023-02-11T01:29:42.137Z,103170.53
2023-02-11T01:40:06.342Z,103168.81
2023-02-11T01:50:27.749Z,103174.25
2023-02-11T02:00:49.578Z,103159.63
2023-02-11T02:11:11.065Z,103147.59
2023-02-11T02:21:41.533Z,103145.91
2023-02-11T02:32:21.785Z,103114.22
2023-02-11T02:42:43.891Z,103099.56
2023-02-11T02:53:17.564Z,103095.34
2023-02-11T03:03:45.660Z,103087.56
2023-02-11T03:14:10.280Z,103103.91
2023-02-11T03:24:33.324Z,103102.25
2023-02-11T03:34:57.896Z,103090.22
2023-02-11T03:45:21.546Z,103075.75
2023-02-11T03:55:43.860Z,103090.31
2023-02-11T04:06:05.358Z,103094.69
2023-02-11T04:16:26.778Z,103081.84
2023-02-11T04:26:48.166Z,103093.09
2023-02-11T04:37:09.596Z,103076.06
2023-02-11T04:47:31.059Z,103085.44
2023-02-11T04:57:52.517Z,103071.00
2023-02-11T05:08:13.871Z,103076.09
2023-02-11T05:18:37.358Z,103078.78
2023-02-11T05:28:58.736Z,103093.41
2023-02-11T05:39:20.158Z,103082.22
2023-02-11T05:49:41.498Z,103080.47
2023-02-11T06:00:04.220Z,103070.91
2023-02-11T06:10:25.826Z,103071.81
2023-02-11T06:20:47.168Z,103074.50
2023-02-11T06:31:09.739Z,103072.78
2023-02-11T06:41:31.320Z,103086.66
2023-02-11T06:51:52.681Z,103080.72
2023-02-11T07:02:14.206Z,103064.41
2023-02-11T07:12:35.680Z,103072.19
2023-02-11T07:22:57.121Z,103067.09
2023-02-11T07:33:18.477Z,103093.88
2023-02-11T07:43:40.009Z,103100.03
2023-02-11T07:54:02.358Z,103106.19
2023-02-11T08:04:23.763Z,103121.78
2023-02-11T08:14:45.173Z,103137.38
2023-02-11T08:25:06.648Z,103154.69
2023-02-11T08:35:28.101Z,103171.94
2023-02-11T08:45:49.736Z,103182.31
2023-02-11T08:56:13.399Z,103202.19
2023-02-11T09:06:34.952Z,103218.41
2023-02-11T09:16:57.457Z,103233.84
2023-02-11T09:27:18.839Z,103240.72
2023-02-11T09:37:40.263Z,103240.63
2023-02-11T09:48:06.375Z,103254.44
2023-02-11T09:58:29.614Z,103271.66
2023-02-11T10:09:06.776Z,103278.59
2023-02-11T10:19:37.496Z,103297.75
2023-02-11T10:30:28.429Z,103282.47
2023-02-11T10:40:50.201Z,103287.72
2023-02-11T10:51:29.055Z,103279.19
2023-02-11T11:01:52.403Z,103281.06
2023-02-11T11:12:35.033Z,103300.06
2023-02-11T11:23:15.866Z,103301.97
2023-02-11T11:33:37.352Z,103330.44
2023-02-11T11:44:00.474Z,103333.16
2023-02-11T11:54:23.462Z,103345.31
2023-02-11T12:04:55.407Z,103328.97
2023-02-11T12:15:26.004Z,103323.81
2023-02-11T12:25:53.646Z,103329.88
2023-02-11T12:36:19.936Z,103304.06
2023-02-11T12:46:56.883Z,103317.03
2023-02-11T12:57:21.988Z,103310.22
2023-02-11T13:07:45.104Z,103322.38
2023-02-11T13:18:21.891Z,103325.06
2023-02-11T13:28:43.277Z,103331.94
2023-02-11T13:39:06.777Z,103342.25
2023-02-11T13:49:35.268Z,103350.03
2023-02-11T13:59:58.872Z,103348.38
2023-02-11T14:10:43.206Z,103346.72
2023-02-11T14:21:17.089Z,103345.06
2023-02-11T14:31:57.650Z,103350.31
2023-02-11T14:42:22.527Z,103355.44
2023-02-11T14:52:44.244Z,103370.16
2023-02-11T15:03:05.643Z,103374.53
2023-02-11T15:13:31.062Z,103380.53
2023-02-11T15:24:00.490Z,103390.88
2023-02-11T15:34:21.890Z,103410.66
2023-02-11T15:44:43.476Z,103414.06
2023-02-11T15:55:05.064Z,103420.03
2023-02-11T16:05:31.358Z,103427.72
2023-02-11T16:15:55.169Z,103435.41
2023-02-11T16:26:33.339Z,103450.03
2023-02-11T16:36:54.697Z,103448.28
2023-02-11T16:47:26.657Z,103453.44
2023-02-11T16:57:48.052Z,103452.56
2023-02-11T17:08:09.828Z,103455.06
2023-02-11T17:18:31.204Z,103474.78
2023-02-11T17:28:52.600Z,103470.31
2023-02-11T17:39:14.411Z,103483.97
2023-02-11T17:49:36.250Z,103504.59
2023-02-11T17:59:59.490Z,103501.97
2023-02-11T18:10:20.862Z,103514.00
2023-02-11T18:20:43.192Z,103534.59
2023-02-11T18:31:05.286Z,103527.63
2023-02-11T18:41:26.941Z,103551.78
2023-02-11T18:51:48.399Z,103561.22
2023-02-11T19:02:10.837Z,103570.69
2023-02-11T19:12:33.144Z,103570.69
2023-02-11T19:22:54.604Z,103581.03
2023-02-11T19:33:15.998Z,103586.19
2023-02-11T19:43:39.749Z,103599.97
2023-02-11T19:54:01.371Z,103597.38
2023-02-11T20:04:24.612Z,103615.47
2023-02-11T20:14:46.009Z,103630.06
2023-02-11T20:25:07.535Z,103639.38
2023-02-11T20:35:28.876Z,103647.09
2023-02-11T20:45:50.717Z,103645.25
2023-02-11T20:56:12.435Z,103665.91
2023-02-11T21:06:35.957Z,103658.13
2023-02-11T21:16:57.505Z,103668.47
2023-02-11T21:27:19.027Z,103682.31
2023-02-11T21:37:40.568Z,103699.50
2023-02-11T21:48:01.961Z,103717.56
2023-02-11T21:58:23.590Z,103715.75
2023-02-11T22:08:45.025Z,103722.41
2023-02-11T22:19:08.378Z,103731.75
2023-02-11T22:29:29.894Z,103735.88
2023-02-11T22:39:51.297Z,103757.25
2023-02-11T22:50:12.696Z,103773.44
2023-02-11T23:00:41.543Z,103780.16
2023-02-11T23:11:07.602Z,103789.63
2023-02-11T23:21:30.494Z,103795.44
2023-02-11T23:31:52.095Z,103806.44
2023-02-11T23:42:13.574Z,103808.69
2023-02-11T23:52:35.021Z,103799.03
